Time;durP1;ratioP1;P1;durP2;ratioP2;P2;SDS_P1;SDS_P2;PMS_P1;PMS_P2;Temp;Humidity;BMP_temperature;BMP_pressure;BME280_temperature;BME280_humidity;BME280_pressure;Samples;Min_cycle;Max_cycle;Signal;HPM_P1;HPM_P2
2024/03/24 00:01:05;;;;;;;2.40;1.80;;;6.00;98.00;;;;;;5034200;28;20830;-63
2024/03/24 00:03:31;;;;;;;1.87;1.50;;;6.00;98.00;;;;;;5048932;28;20887;-63
2024/03/24 00:06:02;;;;;;;1.90;1.63;;;5.90;98.00;;;;;;5033868;28;20524;-63
2024/03/24 00:08:29;;;;;;;2.27;1.53;;;5.90;98.00;;;;;;5033960;28;20454;-64
2024/03/24 00:10:57;;;;;;;1.70;1.40;;;5.90;98.00;;;;;;5034236;28;20464;-63
2024/03/24 00:13:23;;;;;;;1.80;1.43;;;5.90;98.00;;;;;;5033636;28;20969;-63
2024/03/24 00:15:50;;;;;;;2.70;1.50;;;6.00;98.00;;;;;;5033757;28;20494;-63
2024/03/24 00:18:19;;;;;;;1.40;1.40;;;5.90;98.00;;;;;;5033554;28;20508;-63
2024/03/24 00:20:46;;;;;;;1.60;1.50;;;5.90;98.00;;;;;;5049005;28;20594;-63
2024/03/24 00:23:13;;;;;;;1.53;1.40;;;5.90;98.00;;;;;;5032207;28;20470;-63
2024/03/24 00:25:41;;;;;;;1.67;1.37;;;5.90;98.00;;;;;;5033596;28;20464;-63
2024/03/24 00:28:07;;;;;;;2.13;1.53;;;5.90;98.00;;;;;;5048711;28;20458;-63
2024/03/24 00:30:36;;;;;;;1.80;1.30;;;5.80;98.00;;;;;;5033465;28;21036;-63
2024/03/24 00:33:03;;;;;;;2.13;1.60;;;5.80;98.00;;;;;;5033474;28;20462;-63
2024/03/24 00:35:32;;;;;;;2.13;1.40;;;5.70;98.00;;;;;;5033364;28;20459;-63
2024/03/24 00:37:58;;;;;;;2.07;1.60;;;5.70;98.00;;;;;;5033115;28;20452;-63
2024/03/24 00:40:25;;;;;;;2.17;1.43;;;5.70;98.00;;;;;;5048381;28;20553;-63
2024/03/24 00:42:51;;;;;;;2.23;1.60;;;5.80;98.00;;;;;;5033247;28;20451;-63
2024/03/24 00:45:21;;;;;;;2.13;1.40;;;5.60;98.00;;;;;;5033438;28;20468;-62
2024/03/24 00:47:49;;;;;;;2.00;1.50;;;5.50;98.00;;;;;;5033201;28;20443;-63
2024/03/24 00:50:16;;;;;;;3.13;1.53;;;5.40;98.00;;;;;;5048173;28;20550;-63
2024/03/24 00:52:46;;;;;;;1.73;1.50;;;5.40;98.00;;;;;;5032678;28;20457;-63
2024/03/24 00:55:13;;;;;;;1.77;1.50;;;5.40;98.00;;;;;;5032883;28;20463;-63
2024/03/24 00:57:39;;;;;;;2.17;1.50;;;5.30;98.00;;;;;;5032901;28;20858;-63
2024/03/24 01:00:09;;;;;;;2.10;1.47;;;5.20;98.00;;;;;;5033014;28;20484;-63
2024/03/24 01:02:36;;;;;;;2.33;1.30;;;5.20;98.00;;;;;;5032731;28;20453;-63
2024/03/24 01:05:03;;;;;;;2.10;1.30;;;5.30;98.00;;;;;;5047553;28;20458;-63
2024/03/24 01:07:30;;;;;;;1.50;1.40;;;5.50;98.00;;;;;;5032480;28;20457;-63
2024/03/24 01:09:59;;;;;;;5.43;1.67;;;5.50;98.00;;;;;;5032684;28;20472;-63
2024/03/24 01:12:26;;;;;;;2.70;1.50;;;5.40;98.00;;;;;;5032330;28;20948;-63
2024/03/24 01:14:53;;;;;;;2.10;1.37;;;5.40;98.00;;;;;;5032453;28;20766;-63
2024/03/24 01:17:19;;;;;;;2.50;1.47;;;5.40;98.00;;;;;;5032067;28;20470;-63
2024/03/24 01:19:46;;;;;;;3.40;1.70;;;5.30;98.00;;;;;;5032174;28;20490;-63
2024/03/24 01:22:12;;;;;;;2.13;1.60;;;5.40;98.00;;;;;;5032071;28;20458;-63
2024/03/24 01:24:41;;;;;;;1.83;1.43;;;5.30;98.00;;;;;;5032338;28;20980;-63
2024/03/24 01:27:09;;;;;;;2.10;1.50;;;5.30;98.00;;;;;;5047399;28;20473;-63
2024/03/24 01:29:36;;;;;;;1.60;1.50;;;5.40;98.00;;;;;;5032238;28;20459;-63
2024/03/24 01:32:04;;;;;;;1.80;1.40;;;5.40;98.00;;;;;;5032215;28;20863;-63
2024/03/24 01:34:31;;;;;;;3.03;1.60;;;5.40;98.00;;;;;;5031701;28;20454;-63
2024/03/24 01:36:57;;;;;;;2.00;1.63;;;5.40;98.00;;;;;;5032153;28;20804;-63
2024/03/24 01:39:24;;;;;;;5.57;1.60;;;5.40;98.00;;;;;;5031866;28;20497;-63
2024/03/24 01:41:50;;;;;;;2.57;1.47;;;5.50;98.00;;;;;;5031911;28;20453;-63
2024/03/24 01:44:20;;;;;;;1.93;1.50;;;5.40;98.00;;;;;;5046961;28;20553;-63
2024/03/24 01:46:47;;;;;;;2.20;1.60;;;5.30;98.00;;;;;;5047022;28;20452;-63
2024/03/24 01:49:14;;;;;;;1.60;1.40;;;5.30;98.00;;;;;;5031958;28;20523;-63
2024/03/24 01:51:40;;;;;;;3.30;1.60;;;5.30;98.00;;;;;;5031415;28;20465;-63
2024/03/24 01:54:10;;;;;;;1.93;1.50;;;5.30;98.00;;;;;;5031675;28;20460;-62
2024/03/24 01:56:37;;;;;;;1.77;1.57;;;5.30;98.00;;;;;;5031472;28;20452;-63
2024/03/24 01:59:04;;;;;;;1.93;1.50;;;5.20;98.00;;;;;;5031501;28;20539;-63
2024/03/24 02:01:32;;;;;;;1.93;1.57;;;5.10;98.00;;;;;;5031457;28;20489;-63
2024/03/24 02:03:59;;;;;;;1.80;1.63;;;5.10;98.00;;;;;;5031573;28;20469;-63
2024/03/24 02:06:25;;;;;;;2.27;1.50;;;5.10;98.00;;;;;;5031446;28;20454;-63
2024/03/24 02:08:52;;;;;;;3.00;1.90;;;5.00;98.00;;;;;;5030848;28;20520;-63
2024/03/24 02:11:19;;;;;;;1.57;1.33;;;5.00;98.00;;;;;;5030427;28;20457;-63
2024/03/24 02:13:46;;;;;;;2.23;1.57;;;5.00;98.00;;;;;;5046582;28;20502;-63
2024/03/24 02:16:13;;;;;;;2.80;1.30;;;5.00;98.00;;;;;;5031310;28;20456;-63
2024/03/24 02:18:40;;;;;;;3.70;1.63;;;5.00;98.00;;;;;;5029816;28;20488;-63
2024/03/24 02:21:10;;;;;;;1.83;1.57;;;5.00;98.00;;;;;;5031284;28;20829;-63
2024/03/24 02:23:38;;;;;;;2.07;1.60;;;5.10;98.00;;;;;;5031287;28;20480;-63
2024/03/24 02:26:05;;;;;;;1.77;1.53;;;5.00;98.00;;;;;;5031220;28;20971;-63
2024/03/24 02:28:31;;;;;;;1.63;1.47;;;5.10;98.00;;;;;;5031429;28;20459;-63
2024/03/24 02:30:58;;;;;;;2.63;1.47;;;5.40;98.00;;;;;;5046640;28;20473;-65
2024/03/24 02:33:24;;;;;;;1.33;1.20;;;5.30;98.00;;;;;;5046411;28;20475;-65
2024/03/24 02:35:51;;;;;;;1.33;1.23;;;5.00;98.00;;;;;;5031055;28;20460;-65
2024/03/24 02:38:18;;;;;;;1.40;1.30;;;4.80;98.00;;;;;;5031172;28;20461;-65
2024/03/24 02:40:49;;;;;;;2.47;1.40;;;4.70;98.00;;;;;;5031304;28;20473;-66
2024/03/24 02:43:15;;;;;;;2.43;1.70;;;4.60;98.00;;;;;;5030925;28;20453;-65
2024/03/24 02:45:42;;;;;;;1.63;1.40;;;4.60;98.00;;;;;;5031296;28;20460;-63
2024/03/24 02:48:08;;;;;;;2.37;1.50;;;4.60;98.00;;;;;;5034837;28;20497;-63
2024/03/24 02:50:35;;;;;;;2.80;1.70;;;4.60;98.00;;;;;;5035349;28;20498;-63
2024/03/24 02:53:02;;;;;;;1.70;1.43;;;4.70;98.00;;;;;;5035152;28;20475;-63
2024/03/24 02:55:29;;;;;;;1.83;1.40;;;4.70;98.00;;;;;;5035090;28;20470;-63
2024/03/24 02:57:57;;;;;;;1.70;1.33;;;4.70;98.00;;;;;;5035138;28;20992;-63
2024/03/24 03:00:24;;;;;;;2.97;1.50;;;4.60;98.00;;;;;;5034809;28;20484;-63
2024/03/24 03:02:50;;;;;;;1.73;1.50;;;4.60;98.00;;;;;;5034900;28;20449;-63
2024/03/24 03:05:17;;;;;;;2.03;1.50;;;4.60;98.00;;;;;;5034931;28;20551;-63
2024/03/24 03:07:44;;;;;;;2.23;1.50;;;4.60;98.00;;;;;;5034858;28;20459;-63
2024/03/24 03:10:10;;;;;;;1.97;1.60;;;4.70;98.00;;;;;;5034765;28;20801;-63
2024/03/24 03:12:37;;;;;;;1.60;1.40;;;4.90;98.00;;;;;;5034799;28;20466;-63
2024/03/24 03:15:05;;;;;;;1.63;1.40;;;4.90;98.00;;;;;;5034737;28;20457;-63
2024/03/24 03:17:33;;;;;;;3.13;1.60;;;4.90;98.00;;;;;;5034437;28;20470;-63
2024/03/24 03:20:00;;;;;;;1.97;1.63;;;4.90;98.00;;;;;;5034144;28;20480;-63
2024/03/24 03:22:28;;;;;;;2.07;1.60;;;4.90;98.00;;;;;;5034556;28;20825;-63
2024/03/24 03:24:55;;;;;;;1.83;1.47;;;4.80;98.00;;;;;;5034481;28;21031;-63
2024/03/24 03:27:22;;;;;;;1.83;1.60;;;4.90;98.00;;;;;;5049650;28;20496;-63
2024/03/24 03:29:48;;;;;;;1.90;1.60;;;4.90;98.00;;;;;;5034636;28;20453;-63
2024/03/24 03:32:16;;;;;;;1.60;1.50;;;4.90;98.00;;;;;;5033861;28;20461;-63
2024/03/24 03:34:44;;;;;;;1.60;1.50;;;4.90;98.00;;;;;;5034224;28;20468;-63
2024/03/24 03:37:11;;;;;;;2.20;1.57;;;4.90;98.00;;;;;;5032902;28;20540;-63
2024/03/24 03:39:38;;;;;;;1.70;1.40;;;4.90;98.00;;;;;;5034152;28;20994;-63
2024/03/24 03:42:05;;;;;;;2.07;1.53;;;4.80;98.00;;;;;;5034109;28;20487;-63
2024/03/24 03:44:31;;;;;;;1.40;1.30;;;4.70;98.00;;;;;;5033847;28;20864;-63
2024/03/24 03:46:58;;;;;;;2.27;1.60;;;4.80;98.00;;;;;;5033975;28;20962;-63
2024/03/24 03:49:27;;;;;;;2.07;1.60;;;4.80;98.00;;;;;;5049168;28;20980;-63
2024/03/24 03:51:57;;;;;;;2.20;1.63;;;5.00;98.00;;;;;;5033792;28;20468;-63
2024/03/24 03:54:24;;;;;;;1.93;1.50;;;4.90;98.00;;;;;;5033652;28;20941;-63
2024/03/24 03:56:53;;;;;;;1.70;1.33;;;5.00;98.00;;;;;;5033312;28;20539;-62
2024/03/24 03:59:19;;;;;;;2.13;1.40;;;5.00;98.00;;;;;;5033645;28;20494;-64
2024/03/24 04:01:46;;;;;;;1.40;1.40;;;5.00;98.00;;;;;;5033818;28;20460;-63
2024/03/24 04:04:13;;;;;;;4.00;1.57;;;5.10;98.00;;;;;;5033636;28;20457;-63
2024/03/24 04:06:42;;;;;;;2.23;1.53;;;5.10;98.00;;;;;;5033555;28;20543;-63
2024/03/24 04:09:09;;;;;;;2.20;1.60;;;5.10;98.00;;;;;;5033579;28;20462;-63
2024/03/24 04:11:36;;;;;;;1.77;1.50;;;5.10;98.00;;;;;;5033654;28;20553;-63
2024/03/24 04:14:02;;;;;;;1.87;1.40;;;5.10;98.00;;;;;;5048781;28;20830;-63
2024/03/24 04:16:29;;;;;;;2.20;1.70;;;5.20;98.00;;;;;;5048625;28;20989;-63
2024/03/24 04:18:55;;;;;;;2.17;1.40;;;5.10;98.00;;;;;;5033031;28;20529;-63
2024/03/24 04:21:22;;;;;;;3.20;1.70;;;5.10;98.00;;;;;;5033533;28;20833;-63
2024/03/24 04:23:51;;;;;;;1.67;1.50;;;5.10;98.00;;;;;;5033757;28;20839;-63
2024/03/24 04:26:18;;;;;;;3.13;1.70;;;5.00;98.00;;;;;;5033335;28;20844;-63
2024/03/24 04:28:45;;;;;;;3.33;1.60;;;4.90;98.00;;;;;;5033321;28;20948;-63
2024/03/24 04:31:12;;;;;;;3.67;1.67;;;4.90;98.00;;;;;;5033232;28;20465;-63
2024/03/24 04:33:38;;;;;;;1.80;1.47;;;4.90;98.00;;;;;;5032879;28;20453;-63
2024/03/24 04:36:06;;;;;;;2.17;1.70;;;4.80;98.00;;;;;;5032869;28;20983;-63
2024/03/24 04:38:32;;;;;;;1.80;1.40;;;4.80;98.00;;;;;;5033350;28;20528;-63
2024/03/24 04:41:00;;;;;;;1.40;1.37;;;4.70;98.00;;;;;;5033260;28;20502;-63
2024/03/24 04:43:29;;;;;;;2.07;1.50;;;4.80;98.00;;;;;;5033230;28;20459;-63
2024/03/24 04:45:56;;;;;;;1.40;1.30;;;4.80;98.00;;;;;;5032111;28;20535;-63
2024/03/24 04:48:25;;;;;;;1.60;1.40;;;4.80;98.00;;;;;;5032928;28;20447;-63
2024/03/24 04:50:53;;;;;;;1.50;1.30;;;4.80;98.00;;;;;;5032764;28;20457;-63
2024/03/24 04:53:20;;;;;;;2.37;1.60;;;4.80;98.00;;;;;;5032704;28;20538;-63
2024/03/24 04:55:47;;;;;;;1.50;1.40;;;4.80;98.00;;;;;;5033020;28;20463;-63
2024/03/24 04:58:14;;;;;;;1.90;1.50;;;4.90;98.00;;;;;;5032987;28;20542;-63
2024/03/24 05:00:41;;;;;;;2.07;1.53;;;4.90;98.00;;;;;;5032414;28;20497;-63
2024/03/24 05:03:08;;;;;;;2.10;1.43;;;4.80;98.00;;;;;;5032273;28;20462;-63
2024/03/24 05:05:37;;;;;;;3.60;1.53;;;4.80;98.00;;;;;;5033440;28;21142;-63
2024/03/24 05:08:04;;;;;;;2.27;1.40;;;4.80;98.00;;;;;;5031818;28;20460;-63
2024/03/24 05:10:32;;;;;;;3.43;1.50;;;4.80;98.00;;;;;;5047705;28;20466;-62
2024/03/24 05:12:58;;;;;;;1.93;1.40;;;4.90;98.00;;;;;;5033242;28;20455;-62
2024/03/24 05:15:27;;;;;;;2.23;1.40;;;4.80;98.00;;;;;;5032483;28;20991;-63
2024/03/24 05:17:53;;;;;;;1.80;1.47;;;4.80;98.00;;;;;;5047622;28;20461;-63
2024/03/24 05:20:39;;;;;;;1.60;1.50;;;4.80;98.00;;;;;;5032253;28;20489;-63
2024/03/24 05:23:05;;;;;;;1.80;1.30;;;4.80;98.00;;;;;;5032356;28;20460;-64
2024/03/24 05:25:33;;;;;;;2.00;1.50;;;4.80;98.00;;;;;;5032315;28;20475;-63
2024/03/24 05:28:00;;;;;;;1.60;1.30;;;4.90;98.00;;;;;;5047505;28;20457;-63
2024/03/24 05:30:28;;;;;;;2.23;1.30;;;5.00;98.00;;;;;;5032255;28;20477;-63
2024/03/24 05:32:54;;;;;;;1.93;1.70;;;5.00;98.00;;;;;;5030816;28;20468;-63
2024/03/24 05:35:21;;;;;;;1.40;1.40;;;5.00;98.00;;;;;;5047336;28;20472;-62
2024/03/24 05:37:48;;;;;;;1.90;1.40;;;4.90;98.00;;;;;;5032085;28;20503;-63
2024/03/24 05:40:15;;;;;;;5.03;1.47;;;4.80;98.00;;;;;;5047227;28;20479;-62
2024/03/24 05:42:41;;;;;;;1.87;1.43;;;4.70;98.00;;;;;;5032084;28;20462;-63
2024/03/24 05:45:08;;;;;;;2.50;1.50;;;4.70;98.00;;;;;;5032016;28;20462;-63
2024/03/24 05:47:39;;;;;;;2.17;1.53;;;4.70;98.00;;;;;;5031740;28;20461;-63
2024/03/24 05:50:07;;;;;;;1.70;1.43;;;4.70;98.00;;;;;;5031862;28;20496;-63
2024/03/24 05:52:36;;;;;;;1.60;1.50;;;4.70;98.00;;;;;;5031513;28;20458;-63
2024/03/24 05:55:04;;;;;;;1.77;1.30;;;4.70;98.00;;;;;;5046929;28;20829;-62
2024/03/24 05:57:30;;;;;;;1.60;1.50;;;4.70;98.00;;;;;;5031553;28;20556;-63
2024/03/24 05:59:58;;;;;;;3.10;1.50;;;4.60;98.00;;;;;;5031803;28;20486;-63
2024/03/24 06:02:24;;;;;;;4.03;1.60;;;4.60;98.00;;;;;;5030718;28;21026;-63
2024/03/24 06:04:53;;;;;;;1.40;1.40;;;4.70;98.00;;;;;;5031629;28;20482;-63
2024/03/24 06:07:22;;;;;;;2.43;1.47;;;4.70;98.00;;;;;;5031656;28;20554;-63
2024/03/24 06:09:50;;;;;;;1.87;1.60;;;4.70;98.00;;;;;;5031577;28;20543;-63
2024/03/24 06:12:17;;;;;;;1.80;1.40;;;4.70;98.00;;;;;;5031439;28;20463;-63
2024/03/24 06:14:44;;;;;;;1.67;1.40;;;4.80;98.00;;;;;;5031327;28;20466;-63
2024/03/24 06:17:11;;;;;;;2.23;1.43;;;4.70;98.00;;;;;;5031097;28;20583;-62
2024/03/24 06:19:38;;;;;;;2.30;1.50;;;4.80;98.00;;;;;;5046530;28;20511;-63
2024/03/24 06:22:06;;;;;;;1.77;1.43;;;4.90;98.00;;;;;;5031072;28;20448;-63
2024/03/24 06:24:34;;;;;;;2.13;1.50;;;4.90;98.00;;;;;;5031291;28;20517;-63
2024/03/24 06:27:00;;;;;;;1.47;1.40;;;4.90;98.00;;;;;;5031157;28;20460;-63
2024/03/24 06:29:28;;;;;;;1.57;1.30;;;4.80;98.00;;;;;;5031108;28;20947;-63
2024/03/24 06:31:55;;;;;;;1.60;1.37;;;4.90;98.00;;;;;;5029958;28;20543;-63
2024/03/24 06:34:22;;;;;;;1.80;1.60;;;4.90;98.00;;;;;;5030891;28;20460;-62
2024/03/24 06:36:49;;;;;;;2.33;1.47;;;4.90;98.00;;;;;;5030148;28;20823;-63
2024/03/24 06:39:17;;;;;;;2.70;1.50;;;4.90;98.00;;;;;;5030779;28;20470;-63
2024/03/24 06:41:44;;;;;;;1.40;1.30;;;5.00;98.00;;;;;;5029205;28;20484;-63
2024/03/24 06:44:16;;;;;;;2.90;1.60;;;5.00;98.00;;;;;;5030683;28;20460;-63
2024/03/24 06:46:42;;;;;;;1.93;1.20;;;5.10;98.00;;;;;;5030748;28;20511;-64
2024/03/24 06:49:10;;;;;;;1.93;1.47;;;5.10;98.00;;;;;;5030778;28;20454;-63
2024/03/24 06:51:36;;;;;;;2.13;1.33;;;5.10;98.00;;;;;;5030620;28;20857;-63
2024/03/24 06:54:03;;;;;;;4.03;1.43;;;5.20;98.00;;;;;;5030734;28;20840;-63
2024/03/24 06:56:31;;;;;;;2.00;1.40;;;5.20;98.00;;;;;;5030742;28;20883;-63
2024/03/24 06:58:59;;;;;;;2.60;1.50;;;5.20;98.00;;;;;;5031056;28;20492;-61
2024/03/24 07:01:25;;;;;;;1.73;1.40;;;5.20;98.00;;;;;;5030990;28;20491;-61
2024/03/24 07:03:52;;;;;;;2.03;1.57;;;5.30;98.00;;;;;;5031125;28;20506;-61
2024/03/24 07:06:18;;;;;;;1.60;1.40;;;5.20;98.00;;;;;;5031178;28;20450;-61
2024/03/24 07:08:45;;;;;;;1.40;1.20;;;5.20;98.00;;;;;;5030949;28;20471;-61
2024/03/24 07:11:11;;;;;;;2.33;1.60;;;5.30;98.00;;;;;;5030884;28;20448;-61
2024/03/24 07:13:40;;;;;;;1.87;1.30;;;5.30;98.00;;;;;;5046207;28;20463;-61
2024/03/24 07:16:07;;;;;;;2.13;1.40;;;5.30;98.00;;;;;;5030586;28;20489;-61
2024/03/24 07:18:34;;;;;;;2.07;1.40;;;5.30;98.00;;;;;;5030705;28;20556;-61
2024/03/24 07:21:00;;;;;;;1.60;1.60;;;5.30;98.00;;;;;;5030813;28;20488;-61
2024/03/24 07:23:27;;;;;;;1.53;1.40;;;5.20;98.00;;;;;;5030746;28;20470;-61
2024/03/24 07:25:53;;;;;;;1.67;1.40;;;5.30;98.00;;;;;;5030632;28;20490;-61
2024/03/24 07:28:21;;;;;;;3.43;1.60;;;5.30;98.00;;;;;;5030789;28;20470;-61
2024/03/24 07:30:48;;;;;;;2.03;1.67;;;5.40;98.00;;;;;;5030892;28;20470;-61
2024/03/24 07:33:15;;;;;;;1.40;1.33;;;5.30;98.00;;;;;;5032790;28;20487;-61
2024/03/24 07:35:42;;;;;;;1.50;1.20;;;5.40;98.00;;;;;;5034335;28;20465;-61
2024/03/24 07:38:11;;;;;;;1.90;1.40;;;5.40;98.00;;;;;;5034292;28;20582;-61
2024/03/24 07:40:37;;;;;;;3.20;1.73;;;5.40;98.00;;;;;;5033817;28;20528;-61
2024/03/24 07:43:04;;;;;;;1.50;1.40;;;5.50;98.00;;;;;;5032977;28;20476;-62
2024/03/24 07:45:32;;;;;;;1.40;1.30;;;5.60;98.00;;;;;;5033950;28;20453;-61
2024/03/24 07:48:00;;;;;;;2.50;1.70;;;5.70;98.00;;;;;;5034264;28;20499;-61
2024/03/24 07:50:27;;;;;;;1.33;1.30;;;5.70;98.00;;;;;;5034246;28;20519;-61
2024/03/24 07:52:54;;;;;;;3.07;1.50;;;5.80;98.00;;;;;;5033835;28;20467;-61
2024/03/24 07:55:20;;;;;;;1.80;1.40;;;5.70;98.00;;;;;;5034088;28;20460;-61
2024/03/24 07:57:47;;;;;;;2.00;1.57;;;5.70;98.00;;;;;;5034073;28;20493;-62
2024/03/24 08:00:14;;;;;;;1.90;1.50;;;5.90;98.00;;;;;;5033029;28;20883;-61
2024/03/24 08:02:41;;;;;;;7.43;1.63;;;6.10;98.00;;;;;;5032805;28;20745;-62
2024/03/24 08:05:09;;;;;;;1.40;1.40;;;6.40;98.00;;;;;;5034130;28;20461;-61
2024/03/24 08:07:37;;;;;;;3.10;1.70;;;6.60;98.00;;;;;;5034105;28;20465;-61
2024/03/24 08:10:03;;;;;;;2.07;1.60;;;6.60;98.00;;;;;;5033942;28;20447;-61
2024/03/24 08:12:30;;;;;;;2.67;1.60;;;6.70;98.00;;;;;;5033917;28;20880;-62
2024/03/24 08:14:56;;;;;;;2.27;1.53;;;6.80;98.00;;;;;;5034283;28;20459;-61
2024/03/24 08:17:24;;;;;;;1.60;1.50;;;7.00;98.00;;;;;;5034222;28;20465;-61
2024/03/24 08:19:53;;;;;;;1.80;1.50;;;7.10;98.00;;;;;;5034182;28;20486;-61
2024/03/24 08:22:22;;;;;;;2.80;1.80;;;7.10;98.00;;;;;;5032807;28;20516;-61
2024/03/24 08:24:48;;;;;;;3.10;1.77;;;7.20;98.00;;;;;;5032993;28;20462;-61
2024/03/24 08:27:15;;;;;;;1.60;1.50;;;7.40;98.00;;;;;;5033475;28;20466;-61
2024/03/24 08:29:43;;;;;;;2.87;1.73;;;7.40;98.00;;;;;;5033511;28;20483;-61
2024/03/24 08:32:10;;;;;;;3.10;1.60;;;7.50;98.00;;;;;;5033411;28;20901;-62
2024/03/24 08:34:36;;;;;;;3.03;1.60;;;7.50;98.00;;;;;;5033244;28;20460;-61
2024/03/24 08:37:03;;;;;;;6.13;1.80;;;7.50;98.00;;;;;;5033127;28;20463;-62
2024/03/24 08:39:31;;;;;;;2.43;1.70;;;7.60;98.00;;;;;;5033070;28;20459;-62
2024/03/24 08:41:58;;;;;;;5.27;1.50;;;7.60;98.00;;;;;;5033433;28;20466;-62
2024/03/24 08:44:24;;;;;;;1.73;1.60;;;7.60;98.00;;;;;;5031968;28;20462;-62
2024/03/24 08:46:53;;;;;;;2.37;1.40;;;7.60;98.00;;;;;;5033041;28;20509;-61
2024/03/24 08:49:19;;;;;;;2.10;1.70;;;7.60;98.00;;;;;;5031818;28;20452;-61
2024/03/24 08:51:49;;;;;;;4.67;1.70;;;7.50;98.00;;;;;;5032999;28;20939;-62
2024/03/24 08:54:15;;;;;;;2.47;1.60;;;7.60;98.00;;;;;;5033170;28;20758;-61
2024/03/24 08:56:52;;;;;;;1.73;1.40;;;7.60;98.00;;;;;;5032558;28;20459;-61
2024/03/24 08:59:18;;;;;;;2.03;1.60;;;7.50;98.00;;;;;;5031469;28;20549;-62
2024/03/24 09:01:45;;;;;;;2.00;1.50;;;7.50;98.00;;;;;;5033006;28;20480;-61
2024/03/24 09:04:11;;;;;;;2.03;1.60;;;7.60;98.00;;;;;;5031753;28;20455;-62
2024/03/24 09:06:38;;;;;;;3.07;1.80;;;7.70;98.00;;;;;;5033131;28;20473;-58
2024/03/24 09:09:04;;;;;;;3.00;1.63;;;7.60;98.00;;;;;;5032928;28;20944;-59
2024/03/24 09:11:31;;;;;;;2.20;1.80;;;7.50;98.00;;;;;;5032635;28;20482;-58
2024/03/24 09:14:00;;;;;;;4.17;1.87;;;7.40;98.00;;;;;;5031848;28;20444;-58
2024/03/24 09:16:27;;;;;;;7.40;1.90;;;7.40;98.00;;;;;;5032484;28;20463;-58
2024/03/24 09:18:53;;;;;;;1.97;1.40;;;7.50;98.00;;;;;;5032515;28;20458;-58
2024/03/24 09:21:20;;;;;;;2.97;1.80;;;7.50;98.00;;;;;;5032418;28;21004;-58
2024/03/24 09:23:47;;;;;;;1.63;1.47;;;7.60;98.00;;;;;;5032275;28;20948;-58
2024/03/24 09:26:15;;;;;;;2.67;1.67;;;7.60;98.00;;;;;;5032332;28;20962;-58
2024/03/24 09:28:41;;;;;;;2.67;1.67;;;7.60;98.00;;;;;;5032303;28;20456;-58
2024/03/24 09:31:10;;;;;;;3.77;2.13;;;7.50;98.00;;;;;;5031000;28;20833;-58
2024/03/24 09:33:36;;;;;;;4.00;2.10;;;7.50;98.00;;;;;;5031963;28;20453;-58
2024/03/24 09:36:03;;;;;;;3.10;1.97;;;7.60;98.00;;;;;;5032267;28;20911;-58
2024/03/24 09:38:29;;;;;;;3.60;1.70;;;7.50;98.00;;;;;;5031830;28;20455;-58
2024/03/24 09:40:56;;;;;;;3.20;1.70;;;7.60;98.00;;;;;;5031931;28;20572;-58
2024/03/24 09:43:23;;;;;;;3.10;2.03;;;7.60;98.00;;;;;;5031966;28;20451;-58
2024/03/24 09:45:50;;;;;;;4.37;1.87;;;7.50;98.00;;;;;;5021398;28;20471;-59
2024/03/24 09:48:18;;;;;;;3.70;1.90;;;7.50;98.00;;;;;;5032494;28;20452;-58
2024/03/24 09:50:45;;;;;;;3.40;2.03;;;7.50;98.00;;;;;;5032547;28;20551;-59
2024/03/24 09:53:11;;;;;;;2.20;2.00;;;7.50;98.00;;;;;;5032568;28;20459;-58
2024/03/24 09:55:39;;;;;;;3.30;2.20;;;7.50;98.00;;;;;;5032295;28;21078;-58
2024/03/24 09:58:06;;;;;;;2.40;1.90;;;7.50;98.00;;;;;;5032734;28;20458;-58
2024/03/24 10:00:33;;;;;;;5.43;2.40;;;7.40;98.00;;;;;;5032246;28;20526;-59
2024/03/24 10:03:01;;;;;;;2.63;1.97;;;7.40;98.00;;;;;;5032682;28;20936;-61
2024/03/24 10:05:31;;;;;;;5.17;2.30;;;7.30;98.00;;;;;;5047898;28;20463;-59
2024/03/24 10:07:59;;;;;;;5.67;2.07;;;7.30;98.00;;;;;;5032219;28;20450;-60
2024/03/24 10:10:26;;;;;;;3.30;2.20;;;7.30;98.00;;;;;;5032165;28;20471;-61
2024/03/24 10:12:54;;;;;;;4.67;2.27;;;7.30;98.00;;;;;;5047168;28;20467;-60
2024/03/24 10:15:25;;;;;;;3.23;2.00;;;7.30;98.00;;;;;;5031791;28;20463;-61
2024/03/24 10:18:06;;;;;;;3.80;2.07;;;7.20;98.00;;;;;;5032306;28;20465;-61
2024/03/24 10:20:35;;;;;;;5.93;2.30;;;7.20;98.00;;;;;;5047152;28;20491;-60
2024/03/24 10:23:02;;;;;;;4.37;2.17;;;7.20;98.00;;;;;;5045195;28;20490;-61
2024/03/24 10:25:31;;;;;;;4.70;2.40;;;7.20;98.00;;;;;;5031641;28;20550;-61
2024/03/24 10:27:59;;;;;;;5.80;2.27;;;7.20;98.00;;;;;;5031377;28;20452;-61
2024/03/24 10:30:27;;;;;;;2.93;2.00;;;7.30;98.00;;;;;;5031419;28;21005;-61
2024/03/24 10:32:54;;;;;;;3.73;2.00;;;7.40;98.00;;;;;;5046921;28;20457;-62
2024/03/24 10:35:21;;;;;;;2.47;2.03;;;7.30;98.00;;;;;;5031721;28;20458;-61
2024/03/24 10:37:48;;;;;;;4.80;2.33;;;7.20;98.00;;;;;;5031397;28;20520;-62
2024/03/24 10:40:16;;;;;;;3.33;2.20;;;7.20;98.00;;;;;;5031522;28;20484;-61
2024/03/24 10:42:47;;;;;;;7.30;2.37;;;7.30;98.00;;;;;;5046859;28;20464;-62
2024/03/24 10:45:15;;;;;;;4.13;2.10;;;7.20;98.00;;;;;;5031963;28;20466;-61
2024/03/24 10:47:42;;;;;;;4.93;2.50;;;7.20;98.00;;;;;;5031703;28;20459;-61
2024/03/24 10:50:13;;;;;;;3.23;1.90;;;7.20;98.00;;;;;;5031852;28;20473;-61
2024/03/24 10:52:42;;;;;;;2.43;2.10;;;7.20;98.00;;;;;;5030976;28;20491;-61
2024/03/24 10:55:12;;;;;;;4.23;2.20;;;7.30;98.00;;;;;;5031134;28;20468;-61
2024/03/24 10:57:41;;;;;;;3.67;2.23;;;7.40;98.00;;;;;;5030875;28;20464;-61
2024/03/24 11:00:13;;;;;;;3.60;2.17;;;7.50;98.00;;;;;;5030977;28;20468;-61
2024/03/24 11:02:41;;;;;;;3.07;2.00;;;7.40;98.00;;;;;;5030912;28;20455;-61
2024/03/24 11:05:09;;;;;;;2.37;1.80;;;7.40;98.00;;;;;;5031004;28;20464;-61
2024/03/24 11:07:37;;;;;;;3.80;2.30;;;7.40;98.00;;;;;;5031504;28;20455;-61
2024/03/24 11:10:07;;;;;;;4.70;2.03;;;7.30;98.00;;;;;;5034426;28;20466;-61
2024/03/24 11:12:36;;;;;;;2.50;2.00;;;7.20;98.00;;;;;;5034366;28;20455;-61
2024/03/24 11:15:06;;;;;;;3.33;2.03;;;7.30;98.00;;;;;;5034045;28;20955;-61
2024/03/24 11:17:33;;;;;;;3.87;2.10;;;7.20;98.00;;;;;;5034117;28;20903;-61
2024/03/24 11:20:05;;;;;;;6.40;2.17;;;7.20;98.00;;;;;;5049468;28;20458;-61
2024/03/24 11:22:35;;;;;;;4.13;2.10;;;7.20;98.00;;;;;;5034201;28;20484;-61
2024/03/24 11:25:03;;;;;;;3.60;2.33;;;7.30;98.00;;;;;;5034192;28;20838;-61
2024/03/24 11:27:30;;;;;;;3.10;2.20;;;7.20;98.00;;;;;;5033997;28;20465;-61
2024/03/24 11:29:59;;;;;;;2.80;1.90;;;7.20;98.00;;;;;;5033946;28;20495;-61
2024/03/24 11:32:51;;;;;;;3.20;2.00;;;7.30;98.00;;;;;;5034124;28;20523;-61
2024/03/24 11:35:25;;;;;;;4.23;2.00;;;7.30;98.00;;;;;;5049475;28;20521;-61
2024/03/24 11:37:52;;;;;;;3.20;2.30;;;7.40;98.00;;;;;;5033747;28;20462;-61
2024/03/24 11:40:21;;;;;;;2.83;1.90;;;7.40;98.00;;;;;;5033813;28;20507;-61
2024/03/24 11:42:50;;;;;;;3.30;2.10;;;7.40;98.00;;;;;;5033931;28;20551;-61
2024/03/24 11:45:29;;;;;;;2.80;1.97;;;7.50;98.00;;;;;;5034008;28;20468;-61
2024/03/24 11:48:30;;;;;;;6.10;2.20;;;7.50;98.00;;;;;;5033663;28;20456;-61
2024/03/24 11:51:01;;;;;;;2.50;2.00;;;7.40;98.00;;;;;;5034033;28;20524;-61
2024/03/24 11:53:29;;;;;;;4.73;2.20;;;7.40;98.00;;;;;;4995212;28;1150477;-61
2024/03/24 11:55:58;;;;;;;5.47;2.00;;;7.50;98.00;;;;;;5035172;28;20274;-61
2024/03/24 11:58:25;;;;;;;7.63;2.50;;;7.40;98.00;;;;;;5034783;28;20459;-62
2024/03/24 12:00:54;;;;;;;4.00;1.97;;;7.60;98.00;;;;;;5035030;28;20483;-61
2024/03/24 12:03:20;;;;;;;3.53;2.00;;;7.40;98.00;;;;;;5034759;28;20956;-61
2024/03/24 12:08:15;;;;;;;4.27;2.07;;;7.50;98.00;;;;;;5014673;28;20489;-64
2024/03/24 12:10:41;;;;;;;6.83;2.27;;;7.50;98.00;;;;;;5023627;28;20494;-64
2024/03/24 12:13:08;;;;;;;2.70;1.90;;;7.50;98.00;;;;;;5028366;28;20476;-65
2024/03/24 12:15:34;;;;;;;3.03;2.00;;;7.50;98.00;;;;;;5019476;28;20819;-65
2024/03/24 12:18:10;;;;;;;4.90;2.53;;;7.50;98.00;;;;;;5015109;28;20489;-64
2024/03/24 12:20:37;;;;;;;3.30;2.30;;;7.50;98.00;;;;;;5015294;28;20480;-63
2024/03/24 12:23:04;;;;;;;4.13;2.30;;;7.50;98.00;;;;;;5014964;28;20465;-64
2024/03/24 12:25:31;;;;;;;3.50;2.17;;;7.30;98.00;;;;;;5014869;28;20451;-63
2024/03/24 12:27:59;;;;;;;2.90;2.03;;;7.30;98.00;;;;;;5014795;28;20552;-63
2024/03/24 12:30:26;;;;;;;2.73;2.00;;;7.30;98.00;;;;;;5015120;28;20477;-63
2024/03/24 12:32:56;;;;;;;3.70;2.13;;;7.40;98.00;;;;;;5015278;28;20459;-63
2024/03/24 12:35:26;;;;;;;2.43;1.90;;;7.40;98.00;;;;;;5015408;28;20819;-63
2024/03/24 12:37:54;;;;;;;2.93;2.03;;;7.40;98.00;;;;;;5013369;28;20960;-63
2024/03/24 12:40:21;;;;;;;2.60;1.80;;;7.40;98.00;;;;;;5014855;28;20951;-63
2024/03/24 12:42:51;;;;;;;3.23;2.07;;;7.40;98.00;;;;;;5029995;28;20471;-63
2024/03/24 12:45:19;;;;;;;2.70;1.90;;;7.40;98.00;;;;;;5014306;28;20462;-62
2024/03/24 12:47:53;;;;;;;2.47;1.70;;;7.30;98.00;;;;;;5015089;28;20465;-63
2024/03/24 12:50:32;;;;;;;3.00;2.00;;;7.20;98.00;;;;;;5012551;28;20447;-63
2024/03/24 12:53:11;;;;;;;4.50;1.97;;;7.00;98.00;;;;;;5027196;28;20459;-62
2024/03/24 12:55:41;;;;;;;2.93;1.80;;;6.90;98.00;;;;;;5012272;28;20459;-63
2024/03/24 12:58:14;;;;;;;4.03;1.70;;;6.90;98.00;;;;;;5010953;28;20471;-63
2024/03/24 13:00:44;;;;;;;6.13;1.90;;;6.70;98.00;;;;;;5011910;28;20889;-62
2024/03/24 13:03:14;;;;;;;4.10;2.00;;;6.70;98.00;;;;;;5011966;28;20890;-62